createdAt,value
2019-05-16T00:00:51.203Z,100056.75
2019-05-16T00:03:21.337Z,100058.73
2019-05-16T00:05:54.504Z,100051.91
2019-05-16T00:08:23.586Z,100044.63
2019-05-16T00:10:53.957Z,100051.91
2019-05-16T00:13:24.207Z,100051.55
2019-05-16T00:15:54.598Z,100056.67
2019-05-16T00:18:24.848Z,100051.89
2019-05-16T00:20:55.023Z,100053.48
2019-05-16T00:23:25.259Z,100059.25
2019-05-16T00:25:55.673Z,100060.28
2019-05-16T00:28:28.424Z,100073.77
2019-05-16T00:30:59.237Z,100081.94
2019-05-16T00:33:29.685Z,100066.58
2019-05-16T00:36:05.323Z,100058.97
2019-05-16T00:38:33.533Z,100043.88
2019-05-16T00:41:05.242Z,100038.26
2019-05-16T00:43:37.782Z,100035.83
2019-05-16T00:46:08.246Z,100024.23
2019-05-16T00:48:38.611Z,100027.66
2019-05-16T00:51:08.971Z,100024.89
2019-05-16T00:53:40.246Z,100027.14
2019-05-16T00:56:10.689Z,100028.50
2019-05-16T00:58:41.037Z,100030.66
2019-05-16T01:01:12.180Z,100022.83
2019-05-16T01:03:42.519Z,100024.23
2019-05-16T01:06:18.560Z,100022.07
2019-05-16T01:08:44.894Z,100028.56
2019-05-16T01:11:15.132Z,100023.67
2019-05-16T01:13:45.584Z,100024.00
2019-05-16T01:16:18.536Z,100031.28
2019-05-16T01:18:48.730Z,100028.78
2019-05-16T01:21:21.914Z,100028.23
2019-05-16T01:23:52.933Z,100033.31
2019-05-16T01:26:23.172Z,100037.53
2019-05-16T01:28:53.524Z,100033.20
2019-05-16T01:31:24.654Z,100026.86
2019-05-16T01:33:58.310Z,100020.17
2019-05-16T01:36:36.859Z,100026.13
2019-05-16T01:39:00.936Z,100034.77
2019-05-16T01:41:31.218Z,100024.59
2019-05-16T01:44:01.496Z,100024.81
2019-05-16T01:46:31.871Z,100016.56
2019-05-16T01:49:02.458Z,100021.06
2019-05-16T01:51:32.767Z,100015.95
2019-05-16T01:54:03.000Z,100010.55
2019-05-16T01:56:33.787Z,100002.75
2019-05-16T01:59:04.153Z,100008.93
2019-05-16T02:01:34.367Z,100014.52
2019-05-16T02:04:04.660Z,100023.16
2019-05-16T02:06:50.097Z,100029.59
2019-05-16T02:09:11.472Z,100015.50
2019-05-16T02:11:40.221Z,100012.92
2019-05-16T02:14:10.610Z,100006.16
2019-05-16T02:16:43.406Z,100009.96
2019-05-16T02:19:13.739Z,100013.63
2019-05-16T02:21:43.895Z,100022.91
2019-05-16T02:24:14.015Z,100022.77
2019-05-16T02:26:44.295Z,100016.67
2019-05-16T02:29:14.505Z,100014.33
2019-05-16T02:31:44.746Z,100012.03
2019-05-16T02:34:15.495Z,100011.75
2019-05-16T02:37:09.570Z,99999.56
2019-05-16T02:39:21.238Z,99992.91
2019-05-16T02:41:52.121Z,99983.14
2019-05-16T02:44:24.554Z,99984.31
2019-05-16T02:46:54.629Z,99986.95
2019-05-16T02:49:24.786Z,99982.47
2019-05-16T02:51:55.620Z,99984.41
2019-05-16T02:54:25.936Z,99998.13
2019-05-16T02:56:56.493Z,99993.09
2019-05-16T02:59:27.148Z,100003.78
2019-05-16T03:02:00.614Z,100015.12
2019-05-16T03:04:32.223Z,100023.28
2019-05-16T03:07:03.583Z,100024.17
2019-05-16T03:09:34.761Z,100030.56
2019-05-16T03:12:05.159Z,100037.85
2019-05-16T03:14:35.439Z,100039.83
2019-05-16T03:17:07.204Z,100041.84
2019-05-16T03:19:41.637Z,100050.44
2019-05-16T03:22:12.210Z,100042.21
2019-05-16T03:24:42.432Z,100035.76
2019-05-16T03:27:13.225Z,100038.11
2019-05-16T03:29:43.807Z,100033.36
2019-05-16T03:32:14.664Z,100041.09
2019-05-16T03:34:45.013Z,100042.35
2019-05-16T03:37:15.494Z,100037.23
2019-05-16T03:39:45.773Z,100038.19
2019-05-16T03:42:15.920Z,100053.98
2019-05-16T03:44:46.278Z,100063.75
2019-05-16T03:47:16.680Z,100075.30
2019-05-16T03:49:47.074Z,100066.23
2019-05-16T03:52:20.541Z,100066.09
2019-05-16T03:54:51.190Z,100075.02
2019-05-16T03:57:21.909Z,100059.50
2019-05-16T03:59:52.143Z,100055.91
2019-05-16T04:02:22.347Z,100059.84
2019-05-16T04:04:52.747Z,100057.58
2019-05-16T04:07:23.086Z,100052.52
2019-05-16T04:09:53.443Z,100053.91
2019-05-16T04:12:23.622Z,100057.85
2019-05-16T04:14:53.948Z,100059.36
2019-05-16T04:17:24.307Z,100055.84
2019-05-16T04:19:54.610Z,100053.27
2019-05-16T04:22:24.862Z,100046.91
2019-05-16T04:24:55.136Z,100050.98
2019-05-16T04:27:25.452Z,100043.88
2019-05-16T04:29:55.728Z,100038.25
2019-05-16T04:32:25.984Z,100050.72
2019-05-16T04:34:56.246Z,100048.62
2019-05-16T04:37:26.577Z,100064.68
2019-05-16T04:39:56.844Z,100062.17
2019-05-16T04:42:26.956Z,100044.63
2019-05-16T04:44:57.173Z,100055.73
2019-05-16T04:47:27.424Z,100052.98
2019-05-16T04:50:00.991Z,100044.48
2019-05-16T04:52:30.643Z,100029.94
2019-05-16T04:55:01.178Z,100031.98
2019-05-16T04:57:31.519Z,100028.14
2019-05-16T05:00:02.783Z,100029.53
2019-05-16T05:02:33.192Z,100026.13
2019-05-16T05:05:03.767Z,100017.44
2019-05-16T05:07:35.057Z,100015.16
2019-05-16T05:10:06.370Z,100021.38
2019-05-16T05:12:36.622Z,100005.47
2019-05-16T05:15:11.238Z,100005.78
2019-05-16T05:17:41.522Z,100020.53
2019-05-16T05:20:14.740Z,100034.48
2019-05-16T05:22:45.077Z,100033.13
2019-05-16T05:25:15.589Z,100022.59
2019-05-16T05:27:49.932Z,100014.36
2019-05-16T05:30:22.205Z,100017.97
2019-05-16T05:32:52.578Z,100014.63
2019-05-16T05:35:22.866Z,100013.68
2019-05-16T05:37:53.024Z,100012.77
2019-05-16T05:40:23.666Z,100008.12
2019-05-16T05:42:54.663Z,100010.34
2019-05-16T05:45:24.919Z,100012.03
2019-05-16T05:47:55.716Z,100015.05
2019-05-16T05:50:26.005Z,100023.50
2019-05-16T05:52:56.414Z,100007.92
2019-05-16T05:55:27.092Z,100005.23
2019-05-16T05:58:00.907Z,100006.80
2019-05-16T06:00:30.640Z,99998.41
2019-05-16T06:03:00.929Z,99998.12
2019-05-16T06:05:31.052Z,100017.56
2019-05-16T06:08:01.314Z,100006.03
2019-05-16T06:10:31.565Z,100002.77
2019-05-16T06:13:01.660Z,100012.45
2019-05-16T06:15:32.035Z,100023.33
2019-05-16T06:18:02.117Z,100018.98
2019-05-16T06:20:32.316Z,100011.30
2019-05-16T06:23:02.665Z,100017.05
2019-05-16T06:25:32.945Z,100032.58
2019-05-16T06:28:03.209Z,100031.82
2019-05-16T06:30:33.546Z,100040.28
2019-05-16T06:33:03.668Z,100044.03
2019-05-16T06:35:33.873Z,100045.61
2019-05-16T06:38:04.556Z,100043.41
2019-05-16T06:40:34.749Z,100041.17
2019-05-16T06:43:05.037Z,100044.52
2019-05-16T06:45:35.456Z,100038.25
2019-05-16T06:48:05.689Z,100051.30
2019-05-16T06:50:35.945Z,100058.06
2019-05-16T06:53:06.330Z,100057.19
2019-05-16T06:55:36.607Z,100055.66
2019-05-16T06:58:06.851Z,100043.92
2019-05-16T07:00:37.071Z,100035.80
2019-05-16T07:03:09.509Z,100033.97
2019-05-16T07:05:40.647Z,100037.57
2019-05-16T07:08:12.811Z,100030.42
2019-05-16T07:10:43.261Z,100034.56
2019-05-16T07:13:13.582Z,100034.53
2019-05-16T07:15:44.797Z,100028.17
2019-05-16T07:18:15.154Z,100017.88
2019-05-16T07:20:45.578Z,99996.99
2019-05-16T07:23:16.097Z,99964.77
2019-05-16T07:25:46.513Z,99950.63
2019-05-16T07:28:16.856Z,99936.39
2019-05-16T07:30:49.836Z,99914.94
2019-05-16T07:33:21.008Z,99907.17
2019-05-16T07:35:51.731Z,99902.86
2019-05-16T07:38:22.159Z,99899.54
2019-05-16T07:40:52.533Z,99896.48
2019-05-16T07:43:22.954Z,99897.45
2019-05-16T07:45:53.320Z,99898.53
2019-05-16T07:48:23.726Z,99904.05
2019-05-16T07:50:54.127Z,99911.61
2019-05-16T07:53:24.458Z,99934.94
2019-05-16T07:55:54.791Z,99957.90
2019-05-16T07:58:25.163Z,99965.38
2019-05-16T08:01:02.617Z,99963.48
2019-05-16T08:03:30.186Z,99959.94
2019-05-16T08:06:01.692Z,99958.83
2019-05-16T08:08:31.982Z,99954.22
2019-05-16T08:11:02.378Z,99968.15
2019-05-16T08:13:32.952Z,99971.33
2019-05-16T08:16:03.668Z,99967.08
2019-05-16T08:18:34.013Z,99969.40
2019-05-16T08:21:04.522Z,99976.28
2019-05-16T08:23:34.971Z,99982.82
2019-05-16T08:26:05.714Z,99990.08
2019-05-16T08:28:36.133Z,99990.05
2019-05-16T08:31:06.448Z,99981.59
2019-05-16T08:33:36.792Z,99983.03
2019-05-16T08:36:09.096Z,99978.92
2019-05-16T08:38:42.999Z,99975.97
2019-05-16T08:41:16.905Z,99979.38
2019-05-16T08:43:46.632Z,99974.55
2019-05-16T08:46:20.720Z,99966.55
2019-05-16T08:50:06.253Z,99965.00
2019-05-16T08:51:23.479Z,99962.64
2019-05-16T08:53:53.889Z,99959.14
2019-05-16T08:56:24.263Z,99955.47
2019-05-16T08:58:54.753Z,99945.38
2019-05-16T09:01:25.141Z,99936.72
2019-05-16T09:03:55.500Z,99942.17
2019-05-16T09:06:26.458Z,99935.64
2019-05-16T09:08:59.600Z,99940.22
2019-05-16T09:11:43.313Z,99939.90
2019-05-16T09:14:01.100Z,99930.36
2019-05-16T09:16:31.873Z,99917.84
2019-05-16T09:19:02.280Z,99925.51
2019-05-16T09:21:32.671Z,99923.32
2019-05-16T09:24:02.987Z,99917.13
2019-05-16T09:26:33.414Z,99931.00
2019-05-16T09:29:04.165Z,99919.38
2019-05-16T09:31:38.267Z,99912.38
2019-05-16T09:34:07.529Z,99907.70
2019-05-16T09:36:38.077Z,99915.82
2019-05-16T09:39:09.613Z,99901.05
2019-05-16T09:41:54.639Z,99898.30
2019-05-16T09:44:12.099Z,99899.43
2019-05-16T09:46:47.153Z,99900.36
2019-05-16T09:49:24.256Z,99899.69
2019-05-16T09:51:49.758Z,99913.58
2019-05-16T09:54:20.118Z,99900.28
2019-05-16T09:56:50.591Z,99898.57
2019-05-16T09:59:21.017Z,99903.64
2019-05-16T10:01:51.370Z,99896.29
2019-05-16T10:04:21.791Z,99893.69
2019-05-16T10:06:52.665Z,99890.33
2019-05-16T10:09:37.795Z,99893.99
2019-05-16T10:12:08.116Z,99890.24
2019-05-16T10:14:27.333Z,99889.89
2019-05-16T10:16:57.994Z,99900.34
2019-05-16T10:19:28.807Z,99900.15
2019-05-16T10:22:00.812Z,99906.91
2019-05-16T10:24:31.234Z,99911.00
2019-05-16T10:27:01.707Z,99910.88
2019-05-16T10:29:32.001Z,99905.98
2019-05-16T10:32:02.314Z,99907.76
2019-05-16T10:34:32.771Z,99903.66
2019-05-16T10:37:03.091Z,99905.89
2019-05-16T10:39:33.477Z,99909.77
2019-05-16T10:42:06.641Z,99924.03
2019-05-16T10:44:38.419Z,99912.94
2019-05-16T10:47:08.261Z,99918.21
2019-05-16T10:49:41.723Z,99912.00
2019-05-16T10:52:10.689Z,99909.92
2019-05-16T10:54:54.167Z,99911.70
2019-05-16T10:57:13.702Z,99916.27
2019-05-16T11:00:01.862Z,99920.50
2019-05-16T11:02:19.605Z,99918.14
2019-05-16T11:04:59.965Z,99925.70
2019-05-16T11:07:22.206Z,99922.66
2019-05-16T11:09:58.596Z,99923.09
2019-05-16T11:12:43.141Z,99934.42
2019-05-16T11:14:56.753Z,99925.23
2019-05-16T11:17:27.841Z,99921.89
2019-05-16T11:19:58.411Z,99905.91
2019-05-16T11:22:31.698Z,99919.69
2019-05-16T11:25:02.526Z,99910.91
2019-05-16T11:27:32.874Z,99911.11
2019-05-16T11:30:03.222Z,99915.05
2019-05-16T11:32:34.132Z,99920.18
2019-05-16T11:35:04.500Z,99921.86
2019-05-16T11:37:37.538Z,99926.98
2019-05-16T11:40:08.222Z,99929.86
2019-05-16T11:42:38.577Z,99936.36
2019-05-16T11:45:10.524Z,99944.88
2019-05-16T11:47:41.724Z,99957.92
2019-05-16T11:50:12.755Z,99958.03
2019-05-16T11:52:43.188Z,99960.11
2019-05-16T11:55:14.567Z,99962.86
2019-05-16T11:57:47.354Z,99967.17
2019-05-16T12:00:18.123Z,99967.62
2019-05-16T12:02:48.783Z,99960.54
2019-05-16T12:05:19.550Z,99969.17
2019-05-16T12:07:49.948Z,99969.24
2019-05-16T12:10:20.563Z,99977.10
2019-05-16T12:12:50.951Z,99976.66
2019-05-16T12:15:21.785Z,99983.98
2019-05-16T12:18:00.814Z,99981.45
2019-05-16T12:20:24.631Z,99979.11
2019-05-16T12:22:55.012Z,99977.96
2019-05-16T12:25:27.327Z,99992.98
2019-05-16T12:27:57.709Z,99995.39
2019-05-16T12:30:28.082Z,99999.72
2019-05-16T12:32:58.890Z,99998.70
2019-05-16T12:35:29.236Z,100008.02
2019-05-16T12:37:59.801Z,100011.70
2019-05-16T12:40:30.272Z,100015.50
2019-05-16T12:43:00.734Z,100019.00
2019-05-16T12:45:31.055Z,100022.69
2019-05-16T12:48:01.576Z,100025.47
2019-05-16T12:50:31.900Z,100020.44
2019-05-16T12:53:02.593Z,100022.89
2019-05-16T12:55:33.199Z,100021.42
2019-05-16T12:58:12.788Z,100032.70
2019-05-16T13:00:37.130Z,100029.56
2019-05-16T13:03:07.925Z,100033.32
2019-05-16T13:05:38.779Z,100029.49
2019-05-16T13:08:09.125Z,100026.22
2019-05-16T13:10:39.515Z,100022.95
2019-05-16T13:13:10.288Z,100027.22
2019-05-16T13:15:42.348Z,100030.39
2019-05-16T13:18:13.024Z,100027.44
2019-05-16T13:20:46.792Z,100026.83
2019-05-16T13:23:18.215Z,100026.85
2019-05-16T13:25:48.920Z,100019.91
2019-05-16T13:28:21.843Z,100024.88
2019-05-16T13:30:52.287Z,100037.23
2019-05-16T13:33:22.622Z,100041.58
2019-05-16T13:35:53.384Z,100035.50
2019-05-16T13:38:23.903Z,100034.38
2019-05-16T13:40:57.046Z,100030.55
2019-05-16T13:43:27.190Z,100029.53
2019-05-16T13:45:57.787Z,100033.05
2019-05-16T13:48:28.873Z,100029.42
2019-05-16T13:51:11.075Z,100029.48
2019-05-16T13:53:36.829Z,100028.16
2019-05-16T13:56:13.073Z,100026.50
2019-05-16T13:58:39.528Z,100017.39
2019-05-16T14:01:10.008Z,100015.58
2019-05-16T14:03:40.487Z,100008.78
2019-05-16T14:06:10.992Z,100011.42
2019-05-16T14:08:42.836Z,100013.70
2019-05-16T14:11:13.361Z,100008.09
2019-05-16T14:13:46.769Z,100005.30
2019-05-16T14:16:17.951Z,100013.75
2019-05-16T14:18:48.736Z,100008.45
2019-05-16T14:21:19.485Z,100012.77
2019-05-16T14:23:53.378Z,100014.91
2019-05-16T14:26:22.098Z,100016.98
2019-05-16T14:28:52.572Z,100014.07
2019-05-16T14:31:24.556Z,100010.51
2019-05-16T14:33:56.763Z,100010.88
2019-05-16T14:36:27.991Z,100011.69
2019-05-16T14:38:58.532Z,100000.94
2019-05-16T14:41:29.035Z,100004.38
2019-05-16T14:43:59.600Z,100005.89
2019-05-16T14:46:32.722Z,100008.39
2019-05-16T14:49:03.201Z,100004.55
2019-05-16T14:51:34.037Z,100000.77
2019-05-16T14:54:07.436Z,100002.74
2019-05-16T14:56:38.623Z,99995.77
2019-05-16T14:59:08.989Z,99995.92
2019-05-16T15:01:39.494Z,99997.05
2019-05-16T15:04:10.328Z,99998.07
2019-05-16T15:06:40.697Z,99993.94
2019-05-16T15:09:11.434Z,99993.75
2019-05-16T15:11:41.880Z,99995.23
2019-05-16T15:14:12.337Z,99994.77
2019-05-16T15:16:43.024Z,100003.55
2019-05-16T15:19:17.394Z,100006.27
2019-05-16T15:21:47.827Z,100005.11
2019-05-16T15:24:18.261Z,100008.75
2019-05-16T15:26:48.690Z,100010.91
2019-05-16T15:29:19.153Z,100014.77
2019-05-16T15:31:49.496Z,100008.95
2019-05-16T15:34:20.072Z,100012.50
2019-05-16T15:36:50.547Z,100003.15
2019-05-16T15:39:20.917Z,99985.14
2019-05-16T15:41:51.341Z,99993.59
2019-05-16T15:44:22.138Z,99994.23
2019-05-16T15:46:52.536Z,99995.80
2019-05-16T15:49:22.963Z,99997.84
2019-05-16T15:51:53.567Z,99992.47
2019-05-16T15:54:28.565Z,99991.47
2019-05-16T15:56:58.337Z,99988.19
2019-05-16T15:59:28.705Z,99985.91
2019-05-16T16:01:59.091Z,99985.33
2019-05-16T16:04:29.451Z,99984.02
2019-05-16T16:06:59.910Z,99989.33
2019-05-16T16:09:30.411Z,99992.81
2019-05-16T16:12:00.965Z,99996.13
2019-05-16T16:14:31.316Z,100003.22
2019-05-16T16:17:01.760Z,100004.55
2019-05-16T16:19:32.242Z,100002.36
2019-05-16T16:22:02.598Z,100007.44
2019-05-16T16:24:33.041Z,100007.70
2019-05-16T16:27:03.515Z,100012.09
2019-05-16T16:29:33.962Z,100018.01
2019-05-16T16:32:06.499Z,100012.88
2019-05-16T16:34:36.872Z,100009.61
2019-05-16T16:37:07.710Z,100002.38
2019-05-16T16:39:38.579Z,99981.16
2019-05-16T16:42:09.158Z,99993.20
2019-05-16T16:44:39.474Z,99994.19
2019-05-16T16:47:09.911Z,99995.03
2019-05-16T16:49:40.758Z,100004.20
2019-05-16T16:52:11.386Z,100004.36
2019-05-16T16:54:41.746Z,100009.05
2019-05-16T16:57:13.123Z,100016.66
2019-05-16T16:59:43.945Z,100010.27
2019-05-16T17:02:16.997Z,100015.19
2019-05-16T17:04:50.930Z,100006.27
2019-05-16T17:07:18.701Z,100010.97
2019-05-16T17:09:49.193Z,100005.70
2019-05-16T17:12:19.716Z,100006.64
2019-05-16T17:14:50.111Z,100003.50
2019-05-16T17:17:20.810Z,100003.63
2019-05-16T17:19:51.672Z,100001.80
2019-05-16T17:22:22.107Z,99999.28
2019-05-16T17:24:56.620Z,100000.58
2019-05-16T17:27:27.044Z,99993.63
2019-05-16T17:30:00.610Z,99994.54
2019-05-16T17:32:29.681Z,99996.41
2019-05-16T17:35:00.141Z,99998.20
2019-05-16T17:37:30.969Z,99999.04
2019-05-16T17:40:01.470Z,99993.47
2019-05-16T17:42:34.494Z,99995.78
2019-05-16T17:45:04.166Z,99993.44
2019-05-16T17:47:36.889Z,99999.52
2019-05-16T17:50:08.572Z,99999.91
2019-05-16T17:52:39.006Z,99993.44
2019-05-16T17:55:11.146Z,99994.52
2019-05-16T17:57:41.602Z,99990.86
2019-05-16T18:00:16.670Z,100000.44
2019-05-16T18:02:46.520Z,100004.13
2019-05-16T18:05:18.161Z,100010.20
2019-05-16T18:07:48.636Z,100013.98
2019-05-16T18:10:19.964Z,100006.55
2019-05-16T18:12:50.563Z,100011.49
2019-05-16T18:15:23.164Z,100010.41
2019-05-16T18:17:53.578Z,100010.70
2019-05-16T18:20:26.586Z,100011.95
2019-05-16T18:22:57.283Z,100009.44
2019-05-16T18:25:28.095Z,100011.23
2019-05-16T18:27:58.978Z,100011.38
2019-05-16T18:30:29.529Z,100007.55
2019-05-16T18:33:00.002Z,100003.53
2019-05-16T18:35:30.374Z,100013.40
2019-05-16T18:38:00.765Z,100020.46
2019-05-16T18:40:31.289Z,100024.89
2019-05-16T18:43:01.740Z,100022.22
2019-05-16T18:45:32.117Z,100020.69
2019-05-16T18:48:02.610Z,100022.73
2019-05-16T18:50:33.054Z,100018.27
2019-05-16T18:53:03.429Z,100026.02
2019-05-16T18:55:33.880Z,100026.90
2019-05-16T18:58:07.477Z,100038.67
2019-05-16T19:00:37.501Z,100037.94
2019-05-16T19:03:08.472Z,100032.98
2019-05-16T19:05:38.954Z,100036.66
2019-05-16T19:08:09.365Z,100033.25
2019-05-16T19:10:40.829Z,100036.17
2019-05-16T19:13:12.510Z,100032.22
2019-05-16T19:15:42.959Z,100033.55
2019-05-16T19:18:13.370Z,100030.15
2019-05-16T19:20:46.075Z,100036.94
2019-05-16T19:23:17.609Z,100043.51
2019-05-16T19:25:48.024Z,100047.27
2019-05-16T19:28:18.436Z,100042.06
2019-05-16T19:30:50.238Z,100051.41
2019-05-16T19:33:20.759Z,100047.04
2019-05-16T19:35:51.213Z,100043.23
2019-05-16T19:38:21.644Z,100042.95
2019-05-16T19:40:53.009Z,100036.38
2019-05-16T19:43:23.389Z,100036.13
2019-05-16T19:45:57.072Z,100033.13
2019-05-16T19:48:27.158Z,100030.35
2019-05-16T19:50:57.709Z,100025.50
2019-05-16T19:53:28.109Z,100021.16
2019-05-16T19:55:58.593Z,100026.82
2019-05-16T19:58:31.154Z,100031.53
2019-05-16T20:01:03.189Z,100031.75
2019-05-16T20:03:33.824Z,100026.91
2019-05-16T20:06:04.235Z,100028.16
2019-05-16T20:08:34.621Z,100022.61
2019-05-16T20:11:05.673Z,100018.95
2019-05-16T20:13:36.747Z,100018.25
2019-05-16T20:16:07.589Z,100004.62
2019-05-16T20:18:38.054Z,100003.16
2019-05-16T20:21:08.472Z,99999.01
2019-05-16T20:23:38.865Z,100001.42
2019-05-16T20:26:09.341Z,100003.43
2019-05-16T20:28:40.047Z,99988.81
2019-05-16T20:31:11.043Z,99997.73
2019-05-16T20:33:41.598Z,99995.11
2019-05-16T20:36:12.005Z,99999.01
2019-05-16T20:38:43.050Z,99992.72
2019-05-16T20:41:13.460Z,99987.79
2019-05-16T20:43:43.896Z,99986.40
2019-05-16T20:46:16.365Z,99990.09
2019-05-16T20:48:46.504Z,99979.61
2019-05-16T20:51:20.060Z,99979.83
2019-05-16T20:53:49.843Z,99975.05
2019-05-16T20:56:20.429Z,99979.42
2019-05-16T20:58:50.903Z,99975.77
2019-05-16T21:01:21.308Z,99972.98
2019-05-16T21:03:51.778Z,99965.84
2019-05-16T21:06:22.279Z,99962.30
2019-05-16T21:08:52.667Z,99965.22
2019-05-16T21:11:23.440Z,99969.45
2019-05-16T21:13:56.534Z,99968.80
2019-05-16T21:16:27.151Z,99969.13
2019-05-16T21:18:57.599Z,99963.98
2019-05-16T21:21:28.357Z,99961.02
2019-05-16T21:23:59.434Z,99961.78
2019-05-16T21:26:30.803Z,99961.78
2019-05-16T21:29:01.499Z,99963.80
2019-05-16T21:31:32.208Z,99969.39
2019-05-16T21:34:02.943Z,99958.94
2019-05-16T21:36:33.423Z,99954.48
2019-05-16T21:39:08.128Z,99952.54
2019-05-16T21:41:37.440Z,99956.16
2019-05-16T21:44:08.004Z,99954.41
2019-05-16T21:46:38.453Z,99943.19
2019-05-16T21:49:09.016Z,99938.61
2019-05-16T21:51:40.165Z,99936.23
2019-05-16T21:54:10.565Z,99935.45
2019-05-16T21:56:41.001Z,99939.41
2019-05-16T21:59:11.697Z,99935.94
2019-05-16T22:01:43.101Z,99942.07
2019-05-16T22:04:14.072Z,99940.75
2019-05-16T22:06:44.439Z,99939.98
2019-05-16T22:09:14.855Z,99941.16
2019-05-16T22:11:46.551Z,99941.16
2019-05-16T22:14:19.815Z,99938.04
2019-05-16T22:16:50.374Z,99933.94
2019-05-16T22:19:20.828Z,99940.82
2019-05-16T22:21:51.242Z,99936.52
2019-05-16T22:24:21.671Z,99934.53
2019-05-16T22:26:51.986Z,99934.69
2019-05-16T22:29:22.400Z,99932.61
2019-05-16T22:31:52.894Z,99930.71
2019-05-16T22:34:23.241Z,99933.67
2019-05-16T22:36:53.678Z,99932.76
2019-05-16T22:39:26.372Z,99929.35
2019-05-16T22:41:57.456Z,99933.45
2019-05-16T22:44:27.775Z,99930.42
2019-05-16T22:46:58.183Z,99938.61
2019-05-16T22:49:28.525Z,99931.08
2019-05-16T22:51:58.922Z,99922.94
2019-05-16T22:54:29.904Z,99933.28
2019-05-16T22:57:00.274Z,99930.03
2019-05-16T22:59:30.695Z,99930.47
2019-05-16T23:02:02.037Z,99926.59
2019-05-16T23:04:32.434Z,99928.96
2019-05-16T23:07:02.795Z,99931.73
2019-05-16T23:09:33.287Z,99927.86
2019-05-16T23:12:04.018Z,99931.73
2019-05-16T23:14:34.829Z,99931.52
2019-05-16T23:17:06.830Z,99924.80
2019-05-16T23:19:37.158Z,99920.02
2019-05-16T23:22:08.483Z,99939.48
2019-05-16T23:24:38.955Z,99941.23
2019-05-16T23:27:09.437Z,99936.45
2019-05-16T23:29:40.831Z,99934.25
2019-05-16T23:32:11.297Z,99936.95
2019-05-16T23:34:41.651Z,99931.26
2019-05-16T23:37:12.047Z,99931.92
2019-05-16T23:39:42.586Z,99930.14
2019-05-16T23:42:13.095Z,99933.97
2019-05-16T23:44:43.458Z,99939.80
2019-05-16T23:47:13.856Z,99932.00
2019-05-16T23:49:44.220Z,99923.56
2019-05-16T23:52:16.663Z,99911.59
2019-05-16T23:54:47.551Z,99911.47
2019-05-16T23:57:18.164Z,99907.83
2019-05-16T23:59:48.593Z,99905.96
